Lake Providence, LA (71254)

5:07 AM CST on February 08, 2016 (GMT -0600)
APRSWXNET | | Change Station
CLOSE
Current Station
Personal Weather Station
Location: Monticello, LA
Elevation: 91 ft
Nearby Weather Stations
Active Advisory: Wind Advisory

Elev 91 ft 32.61 °N, 91.35 °W | Updated 23 minutes ago

Partly Cloudy
Partly Cloudy
44 °F
Feels Like 42 °F
N
4
Wind Variable Wind from West
Gusts 8.0 mph

Today
High -- | Low -- °F
--% Chance of Precip.
Yesterday
High -- | Low -- °F
Precip. -- in
Pressure 30.06 in
Visibility 10.0 miles
Clouds Clear
Windchill 42 °F
Dew Point 34 °F
Humidity 69%
Rainfall in
Snow Depth Not available.
6:54 AM 5:43 PM
Waning Crescent, 0% visible
METAR KTVR 081053Z AUTO 25005KT 10SM CLR 07/02 A3004 RMK AO2 SLP178 T00670017
Pressure 30.06 in
Visibility 10.0 miles
Clouds Clear
Windchill 42 °F
Dew Point 34 °F
Humidity 69%
Rainfall in
Snow Depth Not available.
6:54 AM 5:43 PM
Waning Crescent, 0% visible
METAR KTVR 081053Z AUTO 25005KT 10SM CLR 07/02 A3004 RMK AO2 SLP178 T00670017

10-Day Weather Forecast

Almanac

Astronomy

Feb. 08, 2016 Rise Set
Actual Time
Civil Twilight
Nautical Twilight
Astronomical Twilight
Moon
Length of Visible Light
Length of Day
Tomorrow will be .
, % of the Moon is Illuminated

Today's Extremes

State Highs State Lows

Community

WunderPhotos

Upload Photos

1,891,420 photos uploaded!

WunderBlog® & News

Nearby

Air Quality

  Air Quality AQ Index Pollutant
Not available.

Snow Depth

Station Depth Elevation

Earthquake Activity

City Distance Mag. Time & Date
Minimum magnitude displayed is 2.5.

Coastal Water Temperatures

Place Temperature

Stations

Nearby Weather Stations

Station Location Temp. Windchill Dew Point Humidity Wind Precip. Elev Updated Type
                   

Watches & Warnings

Wind Advisory
Issued: 2:52 AM CST Feb. 8, 2016 – National Weather Service

... Wind Advisory in effect from 10 am this morning to 6 PM CST
this evening...

The National Weather Service in Jackson has issued a Wind
Advisory... which is in effect from 10 am this morning to 6 PM CST
this evening.

* Timing... 10 am to 6 PM

* winds... 25 to 35 mph with gusts from 40 to 45 mph

* impacts... these winds can knock down rotten trees and affect
travel in high profile vehicles

Precautionary/preparedness actions...

A Wind Advisory means that winds of 25 to 35 mph are expected. Winds
this strong can make driving difficult... especially for high
profile vehicles. Use extra caution when driving.

Wind gusts of 40 to 45 mph can bring down large limbs and rotted
trees causing serious injury and property damage. Exercise caution
when outdoors during these conditions.



26